createdAt,value
2022-10-21T00:13:33.782Z,7.60
2022-10-21T00:28:37.056Z,8.30
2022-10-21T00:44:01.038Z,7.90
2022-10-21T00:59:05.488Z,9.20
2022-10-21T01:14:30.386Z,10.00
2022-10-21T01:30:03.352Z,10.00
2022-10-21T01:45:24.940Z,9.90
2022-10-21T02:00:29.499Z,11.70
2022-10-21T02:15:34.754Z,10.10
2022-10-21T02:30:48.638Z,9.90
2022-10-21T02:45:59.281Z,7.70
2022-10-21T03:01:02.750Z,9.90
2022-10-21T03:16:07.050Z,10.20
2022-10-21T03:31:10.133Z,9.40
2022-10-21T03:46:13.152Z,8.30
2022-10-21T04:01:16.233Z,9.80
2022-10-21T04:16:21.838Z,10.60
2022-10-21T04:31:29.792Z,9.80
2022-10-21T04:46:35.149Z,11.80
2022-10-21T05:01:38.031Z,10.10
2022-10-21T05:16:41.291Z,10.40
2022-10-21T05:31:44.720Z,25.70
2022-10-21T05:46:48.966Z,13.60
2022-10-21T06:01:52.648Z,26.60
2022-10-21T06:16:56.473Z,29.40
2022-10-21T06:31:59.936Z,17.00
2022-10-21T06:47:03.550Z,19.80
2022-10-21T07:02:07.250Z,19.30
2022-10-21T07:17:10.268Z,50.10
2022-10-21T07:32:13.256Z,71.90
2022-10-21T07:47:16.854Z,29.80
2022-10-21T08:02:20.418Z,24.70
2022-10-21T08:17:23.378Z,51.00
2022-10-21T08:32:26.741Z,20.90
2022-10-21T08:47:45.567Z,18.60
2022-10-21T09:03:13.507Z,26.40
2022-10-21T09:18:45.600Z,17.80
2022-10-21T09:33:59.709Z,16.80
2022-10-21T10:04:31.870Z,23.30
2022-10-21T10:34:57.424Z,25.20
2022-10-21T10:50:00.820Z,23.20
2022-10-21T11:05:36.307Z,24.90
2022-10-21T11:20:49.112Z,19.80
2022-10-21T11:36:20.795Z,37.80
2022-10-21T11:51:56.646Z,28.00
2022-10-21T12:07:29.882Z,12.90
2022-10-21T12:22:34.936Z,13.60
2022-10-21T12:37:44.982Z,16.70
2022-10-21T12:53:21.690Z,24.80
2022-10-21T13:08:30.447Z,37.50
2022-10-21T13:23:38.317Z,17.90
2022-10-21T13:38:55.781Z,35.90
2022-10-21T13:54:12.244Z,20.70
2022-10-21T14:09:29.095Z,26.80
2022-10-21T14:24:37.015Z,21.20
2022-10-21T14:39:41.001Z,26.00
2022-10-21T14:54:48.397Z,40.00
2022-10-21T15:10:03.484Z,57.80
2022-10-21T15:25:14.960Z,49.90
2022-10-21T15:40:20.759Z,43.00
2022-10-21T15:55:24.346Z,35.20
2022-10-21T16:10:38.255Z,33.30
2022-10-21T16:25:41.658Z,26.10
2022-10-21T16:40:44.912Z,27.20
2022-10-21T16:55:48.583Z,21.80
2022-10-21T17:10:51.921Z,23.30
2022-10-21T17:25:56.679Z,16.00
2022-10-21T17:41:00.814Z,32.20
2022-10-21T17:56:08.160Z,16.20
2022-10-21T18:11:15.989Z,37.60
2022-10-21T18:26:25.952Z,21.80
2022-10-21T18:41:29.777Z,16.90
2022-10-21T18:56:34.451Z,22.90
2022-10-21T19:11:38.300Z,18.30
2022-10-21T19:26:42.872Z,17.00
2022-10-21T19:41:47.243Z,19.60
2022-10-21T19:56:52.933Z,21.40
2022-10-21T20:11:56.813Z,20.40
2022-10-21T20:27:02.279Z,20.40
2022-10-21T20:42:05.620Z,24.90
2022-10-21T20:57:08.636Z,18.90
2022-10-21T21:12:12.216Z,17.90
2022-10-21T21:27:16.131Z,17.00
2022-10-21T21:42:19.115Z,16.90
2022-10-21T21:57:27.663Z,19.80
2022-10-21T22:12:31.537Z,13.90
2022-10-21T22:27:34.884Z,14.50
2022-10-21T22:42:38.039Z,15.60
2022-10-21T22:57:41.009Z,14.60
2022-10-21T23:12:44.655Z,15.70
2022-10-21T23:27:47.864Z,16.20
2022-10-21T23:42:50.956Z,19.60
2022-10-21T23:57:53.961Z,17.60
